createdAt,value
2019-01-24T00:00:43.260Z,20.8
2019-01-24T00:01:33.037Z,20.9
2019-01-24T00:02:23.422Z,20.9
2019-01-24T00:03:13.162Z,21.1
2019-01-24T00:04:53.554Z,21.2
2019-01-24T00:05:43.339Z,21.2
2019-01-24T00:06:33.382Z,21.3
2019-01-24T00:07:23.184Z,21.3
2019-01-24T00:08:13.505Z,21.4
2019-01-24T00:09:03.329Z,21.4
2019-01-24T00:09:53.923Z,21.5
2019-01-24T00:10:43.961Z,21.6
2019-01-24T00:11:33.738Z,21.6
2019-01-24T00:12:24.066Z,21.6
2019-01-24T00:13:13.871Z,21.7
2019-01-24T00:14:03.916Z,21.8
2019-01-24T00:14:53.976Z,21.8
2019-01-24T00:15:44.035Z,21.9
2019-01-24T00:16:33.561Z,21.9
2019-01-24T00:17:24.151Z,21.9
2019-01-24T00:18:14.394Z,21.9
2019-01-24T00:19:04.258Z,22
2019-01-24T00:19:54.615Z,22
2019-01-24T00:20:43.881Z,22
2019-01-24T00:21:34.434Z,22
2019-01-24T00:22:24.496Z,21.9
2019-01-24T00:23:14.620Z,21.9
2019-01-24T00:24:04.574Z,21.9
2019-01-24T00:24:54.101Z,21.9
2019-01-24T00:25:45.891Z,21.8
2019-01-24T00:26:33.650Z,21.8
2019-01-24T00:27:24.588Z,21.9
2019-01-24T00:28:15.188Z,21.9
2019-01-24T00:29:05.225Z,21.9
2019-01-24T00:29:54.728Z,21.9
2019-01-24T00:30:44.520Z,21.9
2019-01-24T00:31:35.390Z,21.9
2019-01-24T00:32:25.220Z,21.9
2019-01-24T00:33:15.232Z,21.9
2019-01-24T00:34:05.380Z,22
2019-01-24T00:34:54.235Z,22
2019-01-24T00:35:45.430Z,22.1
2019-01-24T00:36:35.507Z,22.1
2019-01-24T00:37:25.276Z,22.1
2019-01-24T00:38:15.049Z,22.1
2019-01-24T00:39:05.957Z,22.1
2019-01-24T00:39:55.997Z,22.1
2019-01-24T00:40:45.457Z,22.1
2019-01-24T00:41:35.777Z,22.1
2019-01-24T00:42:26.199Z,22.1
2019-01-24T00:43:17.039Z,22.1
2019-01-24T00:44:05.717Z,22
2019-01-24T00:44:56.314Z,22
2019-01-24T00:45:46.166Z,22
2019-01-24T00:46:36.145Z,22
2019-01-24T00:47:25.980Z,21.9
2019-01-24T00:48:16.054Z,21.9
2019-01-24T00:49:05.564Z,21.9
2019-01-24T00:49:56.442Z,21.9
2019-01-24T00:50:45.964Z,21.9
2019-01-24T00:51:36.314Z,21.9
2019-01-24T00:52:25.781Z,21.8
2019-01-24T00:53:16.438Z,21.9
2019-01-24T00:54:05.939Z,21.8
2019-01-24T00:54:56.496Z,21.9
2019-01-24T00:55:46.081Z,21.9
2019-01-24T00:56:35.806Z,21.9
2019-01-24T00:57:26.144Z,21.9
2019-01-24T00:58:16.198Z,21.9
2019-01-24T00:59:06.289Z,22
2019-01-24T00:59:56.888Z,22
2019-01-24T01:00:46.673Z,22.1
2019-01-24T01:01:38.206Z,22.1
2019-01-24T01:02:26.748Z,22.1
2019-01-24T01:03:16.808Z,22.1
2019-01-24T01:04:06.863Z,22.2
2019-01-24T01:04:56.920Z,22.2
2019-01-24T01:05:46.983Z,22.2
2019-01-24T01:06:37.303Z,22.2
2019-01-24T01:07:26.826Z,22.2
2019-01-24T01:08:17.950Z,22.2
2019-01-24T01:09:07.980Z,22.2
2019-01-24T01:09:57.325Z,22.3
2019-01-24T01:10:47.807Z,22.2
2019-01-24T01:11:37.662Z,22.3
2019-01-24T01:12:27.940Z,22.3
2019-01-24T01:13:17.710Z,22.2
2019-01-24T01:14:08.048Z,22.2
2019-01-24T01:14:57.664Z,22.1
2019-01-24T01:15:47.697Z,22.2
2019-01-24T01:16:37.772Z,22.1
2019-01-24T01:17:28.280Z,22.1
2019-01-24T01:18:18.351Z,22.1
2019-01-24T01:19:08.432Z,22.1
2019-01-24T01:19:58.712Z,22.1
2019-01-24T01:20:48.492Z,22
2019-01-24T01:21:38.562Z,22.1
2019-01-24T01:22:28.049Z,22.1
2019-01-24T01:23:17.851Z,22.1
2019-01-24T01:24:09.011Z,22.1
2019-01-24T01:24:58.826Z,22.1
2019-01-24T01:25:49.118Z,22.1
2019-01-24T01:26:38.389Z,22.1
2019-01-24T01:27:29.237Z,22.1
2019-01-24T01:28:17.974Z,22.1
2019-01-24T01:29:09.069Z,22.1
2019-01-24T01:29:59.121Z,22.2
2019-01-24T01:30:49.178Z,22.3
2019-01-24T01:31:39.222Z,22.3
2019-01-24T01:32:29.346Z,22.3
2019-01-24T01:33:19.626Z,22.2
2019-01-24T01:34:08.581Z,22.2
2019-01-24T01:34:59.469Z,22.2
2019-01-24T01:35:49.533Z,22.2
2019-01-24T01:36:39.603Z,22.2
2019-01-24T01:37:29.641Z,22.2
2019-01-24T01:38:21.071Z,22.2
2019-01-24T01:39:09.738Z,22.1
2019-01-24T01:39:59.255Z,22.1
2019-01-24T01:40:50.180Z,22.1
2019-01-24T01:41:39.427Z,22.1
2019-01-24T01:42:29.726Z,22.1
2019-01-24T01:43:20.045Z,22
2019-01-24T01:44:09.812Z,22
2019-01-24T01:44:59.618Z,22
2019-01-24T01:45:50.243Z,22
2019-01-24T01:46:40.260Z,22
2019-01-24T01:47:29.500Z,22
2019-01-24T01:48:20.389Z,22.1
2019-01-24T01:49:09.904Z,22.1
2019-01-24T01:50:00.845Z,22.1
2019-01-24T01:50:50.330Z,22.1
2019-01-24T01:51:40.077Z,22.2
2019-01-24T01:52:30.948Z,22.2
2019-01-24T01:53:20.742Z,22.2
2019-01-24T01:54:09.965Z,22.3
2019-01-24T01:55:00.699Z,22.3
2019-01-24T01:55:50.952Z,22.3
2019-01-24T01:56:41.284Z,22.3
2019-01-24T01:57:31.007Z,22.3
2019-01-24T01:58:21.351Z,22.3
2019-01-24T01:59:10.842Z,22.3
2019-01-24T02:00:00.968Z,22.3
2019-01-24T02:00:51.522Z,22.3
2019-01-24T02:01:41.344Z,22.3
2019-01-24T02:02:31.641Z,22.3
2019-01-24T02:03:21.417Z,22.2
2019-01-24T02:04:11.491Z,22.2
2019-01-24T02:05:01.352Z,22.1
2019-01-24T02:05:51.597Z,22.1
2019-01-24T02:06:41.754Z,22.1
2019-01-24T02:07:31.718Z,22.1
2019-01-24T02:08:21.493Z,22.1
2019-01-24T02:09:11.556Z,22.1
2019-01-24T02:10:01.687Z,22
2019-01-24T02:10:51.949Z,22
2019-01-24T02:11:42.061Z,21.9
2019-01-24T02:12:32.328Z,21.9
2019-01-24T02:13:22.396Z,21.9
2019-01-24T02:14:11.653Z,21.9
2019-01-24T02:15:02.631Z,21.9
2019-01-24T02:15:52.588Z,21.9
2019-01-24T02:16:42.101Z,21.9
2019-01-24T02:17:32.401Z,22
2019-01-24T02:18:22.446Z,22
2019-01-24T02:19:12.583Z,22.1
2019-01-24T02:20:02.475Z,22.1
2019-01-24T02:20:52.356Z,22.1
2019-01-24T02:21:42.693Z,22.2
2019-01-24T02:22:33.023Z,22.2
2019-01-24T02:23:22.533Z,22.3
2019-01-24T02:24:12.615Z,22.3
2019-01-24T02:25:03.238Z,22.3
2019-01-24T02:25:52.960Z,22.3
2019-01-24T02:26:42.568Z,22.3
2019-01-24T02:27:33.357Z,22.3
2019-01-24T02:28:23.433Z,22.2
2019-01-24T02:29:12.920Z,22.2
2019-01-24T02:30:03.590Z,22.1
2019-01-24T02:30:53.612Z,22.1
2019-01-24T02:31:43.384Z,22.1
2019-01-24T02:32:33.500Z,22.1
2019-01-24T02:33:23.332Z,22.1
2019-01-24T02:34:13.298Z,22.1
2019-01-24T02:35:03.967Z,22.1
2019-01-24T02:35:53.454Z,22
2019-01-24T02:36:43.750Z,22
2019-01-24T02:37:33.804Z,21.9
2019-01-24T02:38:23.608Z,21.9
2019-01-24T02:39:14.240Z,22
2019-01-24T02:40:04.262Z,21.9
2019-01-24T02:40:53.228Z,22
2019-01-24T02:41:44.381Z,22
2019-01-24T02:42:33.312Z,22.1
2019-01-24T02:43:23.438Z,22.1
2019-01-24T02:44:13.987Z,22.1
2019-01-24T02:45:04.505Z,22.1
2019-01-24T02:45:54.703Z,22.1
2019-01-24T02:46:43.649Z,22.1
2019-01-24T02:47:34.486Z,22.1
2019-01-24T02:48:24.865Z,22.1
2019-01-24T02:49:14.233Z,22.2
2019-01-24T02:50:04.881Z,22.3
2019-01-24T02:50:54.471Z,22.3
2019-01-24T02:51:44.503Z,22.3
2019-01-24T02:52:34.281Z,22.3
2019-01-24T02:53:24.608Z,22.3
2019-01-24T02:54:14.450Z,22.3
2019-01-24T02:55:05.143Z,22.3
2019-01-24T02:55:55.028Z,22.3
2019-01-24T02:56:44.829Z,22.2
2019-01-24T02:57:35.519Z,22.3
2019-01-24T02:58:25.520Z,22.2
2019-01-24T02:59:15.549Z,22.2
2019-01-24T03:00:05.721Z,22.1
2019-01-24T03:00:54.865Z,22.1
2019-01-24T03:01:45.448Z,22.1
2019-01-24T03:02:35.538Z,22.1
2019-01-24T03:03:25.625Z,22.1
2019-01-24T03:04:15.350Z,22.1
2019-01-24T03:05:05.470Z,22.1
2019-01-24T03:08:38.235Z,22.1
2019-01-24T03:09:28.515Z,22.1
2019-01-24T03:10:18.557Z,22.1
2019-01-24T03:11:08.395Z,22.2
2019-01-24T03:11:58.642Z,22.2
2019-01-24T03:12:48.977Z,22.3
2019-01-24T03:13:38.754Z,22.3
2019-01-24T03:14:28.889Z,22.3
2019-01-24T03:15:18.350Z,22.4
2019-01-24T03:16:08.673Z,22.4
2019-01-24T03:16:59.016Z,22.4
2019-01-24T03:17:49.345Z,22.4
2019-01-24T03:18:39.127Z,22.4
2019-01-24T03:19:29.257Z,22.4
2019-01-24T03:20:18.970Z,22.4
2019-01-24T03:21:09.586Z,22.4
2019-01-24T03:21:59.629Z,22.4
2019-01-24T03:22:49.418Z,22.4
2019-01-24T03:23:39.174Z,22.4
2019-01-24T03:24:29.801Z,22.4
2019-01-24T03:25:19.394Z,22.3
2019-01-24T03:26:09.631Z,22.3
2019-01-24T03:26:59.681Z,22.3
2019-01-24T03:27:50.052Z,22.3
2019-01-24T03:28:39.816Z,22.3
2019-01-24T03:29:29.291Z,22.3
2019-01-24T03:30:20.010Z,22.3
2019-01-24T03:31:09.777Z,22.3
2019-01-24T03:32:00.454Z,22.2
2019-01-24T03:32:50.110Z,22.2
2019-01-24T03:33:39.950Z,22.2
2019-01-24T03:34:30.519Z,22.2
2019-01-24T03:35:20.316Z,22.2
2019-01-24T03:36:10.598Z,22.2
2019-01-24T03:37:00.355Z,22.2
2019-01-24T03:37:49.611Z,22.2
2019-01-24T03:38:39.923Z,22.2
2019-01-24T03:39:30.563Z,22.3
2019-01-24T03:40:20.123Z,22.3
2019-01-24T03:41:10.443Z,22.3
2019-01-24T03:42:00.976Z,22.3
2019-01-24T03:42:51.078Z,22.4
2019-01-24T03:43:41.107Z,22.4
2019-01-24T03:44:30.916Z,22.4
2019-01-24T03:45:21.012Z,22.4
2019-01-24T03:46:11.265Z,22.4
2019-01-24T03:47:00.818Z,22.4
2019-01-24T03:47:51.147Z,22.4
2019-01-24T03:48:41.428Z,22.4
2019-01-24T03:49:30.380Z,22.4
2019-01-24T03:50:21.604Z,22.4
2019-01-24T03:51:11.398Z,22.3
2019-01-24T03:52:01.657Z,22.3
2019-01-24T03:52:51.773Z,22.3
2019-01-24T03:53:41.802Z,22.3
2019-01-24T03:54:31.912Z,22.3
2019-01-24T03:55:21.118Z,22.3
2019-01-24T03:56:11.657Z,22.3
2019-01-24T03:57:00.902Z,22.3
2019-01-24T03:57:51.899Z,22.2
2019-01-24T03:58:41.869Z,22.2
2019-01-24T03:59:31.689Z,22.2
2019-01-24T04:00:21.762Z,22.2
2019-01-24T04:01:12.381Z,22.2
2019-01-24T04:02:02.120Z,22.2
2019-01-24T04:02:51.879Z,22.1
2019-01-24T04:03:42.191Z,22.1
2019-01-24T04:04:31.719Z,22.1
2019-01-24T04:05:22.631Z,22.1
2019-01-24T04:06:12.363Z,22.1
2019-01-24T04:07:02.499Z,22.1
2019-01-24T04:07:52.300Z,22.1
2019-01-24T04:08:42.283Z,22.2
2019-01-24T04:09:32.624Z,22.2
2019-01-24T04:10:22.983Z,22.2
2019-01-24T04:11:11.876Z,22.2
2019-01-24T04:12:02.789Z,22.3
2019-01-24T04:12:53.111Z,22.3
2019-01-24T04:13:42.333Z,22.3
2019-01-24T04:14:32.938Z,22.3
2019-01-24T04:15:23.137Z,22.3
2019-01-24T04:16:13.393Z,22.3
2019-01-24T04:17:03.193Z,22.4
2019-01-24T04:17:53.208Z,22.4
2019-01-24T04:18:42.971Z,22.4
2019-01-24T04:19:33.388Z,22.4
2019-01-24T04:20:23.112Z,22.3
2019-01-24T04:21:13.397Z,22.3
2019-01-24T04:22:03.228Z,22.3
2019-01-24T04:22:53.582Z,22.3
2019-01-24T04:23:43.610Z,22.2
2019-01-24T04:24:33.623Z,22.2
2019-01-24T04:25:24.031Z,22.2
2019-01-24T04:26:13.195Z,22.2
2019-01-24T04:27:03.270Z,22.1
2019-01-24T04:27:53.663Z,22.1
2019-01-24T04:28:43.677Z,22.1
2019-01-24T04:29:33.734Z,22.1
2019-01-24T04:30:23.711Z,22.1
2019-01-24T04:31:14.072Z,22.1
2019-01-24T04:32:04.457Z,22.1
2019-01-24T04:32:54.251Z,22
2019-01-24T04:33:43.973Z,22
2019-01-24T04:34:34.322Z,22
2019-01-24T04:35:27.249Z,22
2019-01-24T04:36:16.326Z,21.9
2019-01-24T04:37:04.299Z,22
2019-01-24T04:37:54.047Z,22
2019-01-24T04:38:44.337Z,22
2019-01-24T04:39:34.674Z,22.1
2019-01-24T04:40:24.454Z,22.1
2019-01-24T04:41:14.529Z,22.1
2019-01-24T04:42:05.178Z,22.1
2019-01-24T04:42:54.649Z,22.1
2019-01-24T04:43:44.725Z,22.2
2019-01-24T04:44:34.731Z,22.2
2019-01-24T04:45:24.856Z,22.3
2019-01-24T04:46:14.846Z,22.3
2019-01-24T04:47:05.476Z,22.3
2019-01-24T04:47:54.568Z,22.4
2019-01-24T04:48:45.061Z,22.4
2019-01-24T04:49:34.364Z,22.4
2019-01-24T04:50:24.823Z,22.4
2019-01-24T04:51:15.021Z,22.4
2019-01-24T04:52:05.096Z,22.4
2019-01-24T04:52:54.871Z,22.3
2019-01-24T04:53:45.176Z,22.3
2019-01-24T04:54:34.953Z,22.3
2019-01-24T04:55:24.588Z,22.3
2019-01-24T04:56:15.431Z,22.3
2019-01-24T04:57:05.393Z,22.3
2019-01-24T04:57:57.233Z,22.2
2019-01-24T04:58:45.550Z,22.2
2019-01-24T04:59:35.435Z,22.2
2019-01-24T05:00:25.698Z,22.2
2019-01-24T05:01:14.958Z,22.1
2019-01-24T05:02:05.790Z,22.1
2019-01-24T05:02:55.852Z,22.1
2019-01-24T05:03:45.836Z,22
2019-01-24T05:04:35.366Z,21.9
2019-01-24T05:05:33.530Z,21.8
2019-01-24T05:06:16.505Z,21.6
2019-01-24T05:07:06.455Z,21.4
2019-01-24T05:07:56.201Z,21.3
2019-01-24T05:08:45.717Z,21.2
2019-01-24T05:10:26.708Z,21
2019-01-24T05:11:16.106Z,21
2019-01-24T05:12:06.189Z,20.9
2019-01-24T05:12:57.054Z,20.9
2019-01-24T05:13:46.806Z,20.9
2019-01-24T05:14:37.072Z,20.8
2019-01-24T05:15:26.886Z,20.8
2019-01-24T05:16:17.220Z,20.8
2019-01-24T05:17:06.707Z,20.8
2019-01-24T05:17:57.101Z,20.8
2019-01-24T05:18:47.086Z,20.8
2019-01-24T05:19:37.152Z,20.8
2019-01-24T05:20:27.264Z,20.9
2019-01-24T05:21:17.537Z,20.9
2019-01-24T05:22:07.877Z,20.9
2019-01-24T05:22:57.419Z,20.9
2019-01-24T05:23:48.043Z,20.9
2019-01-24T05:24:38.033Z,20.8
2019-01-24T05:25:28.121Z,20.8
2019-01-24T05:26:17.940Z,20.8
2019-01-24T05:27:07.669Z,20.8
2019-01-24T05:27:58.105Z,20.7
2019-01-24T05:28:48.072Z,20.7
2019-01-24T05:29:37.562Z,20.6
2019-01-24T05:30:27.954Z,20.6
2019-01-24T05:31:18.257Z,20.6
2019-01-24T05:32:08.029Z,20.6
2019-01-24T05:32:59.676Z,20.6
2019-01-24T05:33:48.474Z,20.6
2019-01-24T05:34:38.754Z,20.5
2019-01-24T05:35:35.673Z,20.5
2019-01-24T05:36:18.857Z,20.4
2019-01-24T05:37:08.374Z,20.4
2019-01-24T05:37:59.009Z,20.4
2019-01-24T05:38:49.035Z,20.4
2019-01-24T05:39:39.082Z,20.4
2019-01-24T05:40:28.886Z,20.4
2019-01-24T05:41:19.221Z,20.4
2019-01-24T05:42:08.725Z,20.4
2019-01-24T05:42:59.135Z,20.4
2019-01-24T05:43:49.389Z,20.4
2019-01-24T05:44:39.489Z,20.4
2019-01-24T05:45:29.496Z,20.5
2019-01-24T05:46:19.269Z,20.5
2019-01-24T05:47:09.611Z,20.5
2019-01-24T05:47:59.397Z,20.6
2019-01-24T05:48:49.135Z,20.6
2019-01-24T05:49:39.466Z,20.6
2019-01-24T05:50:31.097Z,20.6
2019-01-24T05:51:19.579Z,20.6
2019-01-24T05:52:09.949Z,20.6
2019-01-24T05:52:59.449Z,20.7
2019-01-24T05:53:50.089Z,20.7
2019-01-24T05:54:39.560Z,20.7
2019-01-24T05:55:29.600Z,20.8
2019-01-24T05:56:19.646Z,20.8
2019-01-24T05:57:10.008Z,20.8
2019-01-24T05:58:00.073Z,20.8
2019-01-24T05:58:49.838Z,20.8
2019-01-24T05:59:40.162Z,20.9
2019-01-24T06:00:29.682Z,20.9
2019-01-24T06:01:20.267Z,20.9
2019-01-24T06:02:10.615Z,20.9
2019-01-24T06:03:00.377Z,21
2019-01-24T06:03:50.438Z,21.1
2019-01-24T06:06:37.969Z,21.2
2019-01-24T06:07:29.802Z,21.2
2019-01-24T06:08:18.127Z,21.3
2019-01-24T06:09:08.700Z,21.3
2019-01-24T06:09:58.745Z,21.3
2019-01-24T06:10:48.557Z,21.3
2019-01-24T06:11:38.327Z,21.4
2019-01-24T06:12:28.925Z,21.3
2019-01-24T06:13:18.469Z,21.3
2019-01-24T06:14:08.747Z,21.3
2019-01-24T06:14:58.587Z,21.3
2019-01-24T06:15:48.603Z,21.3
2019-01-24T06:16:38.671Z,21.3
2019-01-24T06:17:28.979Z,21.3
2019-01-24T06:18:18.772Z,21.3
2019-01-24T06:19:09.142Z,21.3
2019-01-24T06:19:58.920Z,21.3
2019-01-24T06:20:48.972Z,21.3
2019-01-24T06:21:39.572Z,21.3
2019-01-24T06:22:29.631Z,21.3
2019-01-24T06:23:19.279Z,21.3
2019-01-24T06:24:09.444Z,21.3
2019-01-24T06:24:59.493Z,21.2
2019-01-24T06:25:49.311Z,21.2
2019-01-24T06:27:29.951Z,21.2
2019-01-24T06:32:30.318Z,21.2
2019-01-24T06:33:20.086Z,21.2
2019-01-24T06:34:10.443Z,21.2
2019-01-24T06:34:59.921Z,21.3
2019-01-24T06:35:55.794Z,21.3
2019-01-24T06:36:40.322Z,21.3
2019-01-24T06:37:30.110Z,21.3
2019-01-24T06:38:20.390Z,21.4
2019-01-24T06:39:10.458Z,21.4
2019-01-24T06:40:00.553Z,21.4
2019-01-24T06:40:50.297Z,21.4
2019-01-24T06:41:39.823Z,21.4
2019-01-24T06:42:30.428Z,21.4
2019-01-24T06:43:20.479Z,21.4
2019-01-24T06:44:10.519Z,21.4
2019-01-24T06:45:01.205Z,21.4
2019-01-24T06:45:50.923Z,21.4
2019-01-24T06:46:40.737Z,21.3
2019-01-24T06:47:31.051Z,21.3
2019-01-24T06:48:20.842Z,21.3
2019-01-24T06:49:11.457Z,21.3
2019-01-24T06:50:01.317Z,21.3
2019-01-24T06:50:51.544Z,21.3
2019-01-24T06:51:41.319Z,21.3
2019-01-24T06:52:31.367Z,21.3
2019-01-24T06:53:20.597Z,21.3
2019-01-24T06:54:11.467Z,21.2
2019-01-24T06:55:01.848Z,21.2
2019-01-24T06:55:51.613Z,21.2
2019-01-24T06:56:40.906Z,21.2
2019-01-24T07:01:42.017Z,21.2
2019-01-24T07:02:31.206Z,21.2
2019-01-24T07:03:22.196Z,21.3
2019-01-24T07:04:12.171Z,21.3
2019-01-24T07:06:37.869Z,21.3
2019-01-24T07:07:27.349Z,21.3
2019-01-24T07:08:17.975Z,21.4
2019-01-24T07:09:08.314Z,21.4
2019-01-24T07:09:58.373Z,21.4
2019-01-24T07:10:48.154Z,21.5
2019-01-24T07:11:37.971Z,21.6
2019-01-24T07:12:28.548Z,21.6
2019-01-24T07:13:18.331Z,21.7
2019-01-24T07:14:08.383Z,21.7
2019-01-24T07:14:58.715Z,21.8
2019-01-24T07:15:48.770Z,21.7
2019-01-24T07:16:38.601Z,21.7
2019-01-24T07:17:28.378Z,21.7
2019-01-24T07:18:19.198Z,21.7
2019-01-24T07:19:08.170Z,21.7
2019-01-24T07:19:58.862Z,21.8
2019-01-24T07:20:48.858Z,21.8
2019-01-24T07:21:38.880Z,21.8
2019-01-24T07:22:29.218Z,21.8
2019-01-24T07:23:19.268Z,21.7
2019-01-24T07:24:08.578Z,21.7
2019-01-24T07:24:59.412Z,21.7
2019-01-24T07:25:49.185Z,21.7
2019-01-24T07:26:39.508Z,21.6
2019-01-24T07:27:28.730Z,21.6
2019-01-24T07:28:19.105Z,21.6
2019-01-24T07:29:09.131Z,21.7
2019-01-24T07:29:59.467Z,21.7
2019-01-24T07:30:49.015Z,21.7
2019-01-24T07:31:39.890Z,21.8
2019-01-24T07:32:29.357Z,21.8
2019-01-24T07:33:19.430Z,21.8
2019-01-24T07:34:10.019Z,21.8
2019-01-24T07:34:59.250Z,21.9
2019-01-24T07:35:49.609Z,21.9
2019-01-24T07:36:40.202Z,21.9
2019-01-24T07:37:30.587Z,21.8
2019-01-24T07:38:20.037Z,21.8
2019-01-24T07:39:10.367Z,21.7
2019-01-24T07:40:00.220Z,21.7
2019-01-24T07:40:49.971Z,21.7
2019-01-24T07:41:39.975Z,21.6
2019-01-24T07:42:28.936Z,21.6
2019-01-24T07:43:21.769Z,21.6
2019-01-24T07:44:10.459Z,21.5
2019-01-24T07:45:00.510Z,21.4
2019-01-24T07:45:50.561Z,21.4
2019-01-24T07:46:40.618Z,21.4
2019-01-24T07:47:30.104Z,21.4
2019-01-24T07:48:20.729Z,21.4
2019-01-24T07:49:10.511Z,21.4
2019-01-24T07:50:00.729Z,21.4
2019-01-24T07:50:51.453Z,21.4
2019-01-24T07:51:40.934Z,21.4
2019-01-24T07:52:31.566Z,21.4
2019-01-24T07:53:21.071Z,21.4
2019-01-24T07:54:10.567Z,21.4
2019-01-24T07:55:01.753Z,21.4
2019-01-24T07:55:51.241Z,21.4
2019-01-24T07:56:41.313Z,21.4
2019-01-24T07:57:31.086Z,21.4
2019-01-24T07:58:21.510Z,21.3
2019-01-24T07:59:11.478Z,21.3
2019-01-24T08:00:01.618Z,21.3
2019-01-24T08:00:51.030Z,21.3
2019-01-24T08:01:41.912Z,21.3
2019-01-24T08:02:31.141Z,21.3
2019-01-24T08:03:20.935Z,21.3
2019-01-24T08:04:11.855Z,21.3
2019-01-24T08:05:02.157Z,21.3
2019-01-24T08:05:52.212Z,21.4
2019-01-24T08:06:41.748Z,21.4
2019-01-24T08:07:32.098Z,21.4
2019-01-24T08:08:21.003Z,21.4
2019-01-24T08:09:12.750Z,21.4
2019-01-24T08:10:02.582Z,21.4
2019-01-24T08:10:52.274Z,21.5
2019-01-24T08:11:41.492Z,21.5
2019-01-24T08:12:32.382Z,21.5
2019-01-24T08:13:22.164Z,21.4
2019-01-24T08:14:12.764Z,21.4
2019-01-24T08:15:02.065Z,21.4
2019-01-24T08:15:52.347Z,21.4
2019-01-24T08:16:43.275Z,21.4
2019-01-24T08:17:32.157Z,21.4
2019-01-24T08:18:22.522Z,21.4
2019-01-24T08:19:12.582Z,21.3
2019-01-24T08:20:02.369Z,21.3
2019-01-24T08:20:52.980Z,21.3
2019-01-24T08:21:43.277Z,21.3
2019-01-24T08:22:33.378Z,21.3
2019-01-24T08:23:23.719Z,21.3
2019-01-24T08:24:13.466Z,21.3
2019-01-24T08:25:03.333Z,21.3
2019-01-24T08:25:53.566Z,21.2
2019-01-24T08:26:43.936Z,21.2
2019-01-24T08:27:34.870Z,21.2
2019-01-24T08:28:23.806Z,21.2
2019-01-24T08:29:12.766Z,21.2
2019-01-24T08:30:03.333Z,21.2
2019-01-24T08:30:53.641Z,21.3
2019-01-24T08:31:43.696Z,21.3
2019-01-24T08:32:33.768Z,21.3
2019-01-24T08:33:23.313Z,21.3
2019-01-24T08:34:13.886Z,21.3
2019-01-24T08:35:04.215Z,21.3
2019-01-24T08:35:54.003Z,21.4
2019-01-24T08:36:43.766Z,21.4
2019-01-24T08:37:34.108Z,21.4
2019-01-24T08:38:23.613Z,21.4
2019-01-24T08:39:14.490Z,21.4
2019-01-24T08:40:04.194Z,21.4
2019-01-24T08:40:53.780Z,21.5
2019-01-24T08:41:44.680Z,21.5
2019-01-24T08:42:34.188Z,21.5
2019-01-24T08:43:24.507Z,21.4
2019-01-24T08:44:14.617Z,21.4
2019-01-24T08:45:04.650Z,21.4
2019-01-24T08:45:54.115Z,21.4
2019-01-24T08:46:44.473Z,21.4
2019-01-24T08:47:34.510Z,21.4
2019-01-24T08:48:24.857Z,21.4
2019-01-24T08:49:14.627Z,21.3
2019-01-24T08:50:04.992Z,21.3
2019-01-24T08:50:55.295Z,21.3
2019-01-24T08:51:45.392Z,21.3
2019-01-24T08:52:35.475Z,21.3
2019-01-24T08:53:25.268Z,21.3
2019-01-24T08:54:15.575Z,21.3
2019-01-24T08:55:04.604Z,21.3
2019-01-24T08:55:55.659Z,21.3
2019-01-24T08:56:45.697Z,21.2
2019-01-24T08:57:35.492Z,21.2
2019-01-24T08:58:25.559Z,21.2
2019-01-24T08:59:15.579Z,21.2
2019-01-24T09:00:05.554Z,21.2
2019-01-24T09:00:55.747Z,21.3
2019-01-24T09:01:46.046Z,21.3
2019-01-24T09:02:35.562Z,21.3
2019-01-24T09:03:25.899Z,21.3
2019-01-24T09:04:16.222Z,21.3
2019-01-24T09:05:06.269Z,21.4
2019-01-24T09:05:56.324Z,21.4
2019-01-24T09:06:45.899Z,21.4
2019-01-24T09:07:36.476Z,21.4
2019-01-24T09:08:26.224Z,21.4
2019-01-24T09:09:16.576Z,21.4
2019-01-24T09:10:06.743Z,21.4
2019-01-24T09:10:56.116Z,21.4
2019-01-24T09:11:46.719Z,21.5
2019-01-24T09:12:37.469Z,21.4
2019-01-24T09:13:26.293Z,21.4
2019-01-24T09:14:16.898Z,21.4
2019-01-24T09:15:06.346Z,21.4
2019-01-24T09:15:56.166Z,21.4
2019-01-24T09:16:46.505Z,21.4
2019-01-24T09:17:37.410Z,21.4
2019-01-24T09:18:27.485Z,21.4
2019-01-24T09:19:17.245Z,21.4
2019-01-24T09:20:06.848Z,21.3
2019-01-24T09:20:58.121Z,21.3
2019-01-24T09:21:47.698Z,21.3
2019-01-24T09:22:37.520Z,21.3
2019-01-24T09:23:27.840Z,21.3
2019-01-24T09:24:17.587Z,21.3
2019-01-24T09:25:07.958Z,21.2
2019-01-24T09:25:56.890Z,21.3
2019-01-24T09:26:47.363Z,21.2
2019-01-24T09:27:38.020Z,21.2
2019-01-24T09:28:27.570Z,21.2
2019-01-24T09:29:17.927Z,21.2
2019-01-24T09:30:07.255Z,21.2
2019-01-24T09:30:57.497Z,21.3
2019-01-24T09:31:47.587Z,21.3
2019-01-24T09:32:37.900Z,21.3
2019-01-24T09:33:27.980Z,21.3
2019-01-24T09:34:17.702Z,21.3
2019-01-24T09:35:08.373Z,21.4
2019-01-24T09:35:57.832Z,21.4
2019-01-24T09:36:48.207Z,21.4
2019-01-24T09:37:37.397Z,21.4
2019-01-24T09:38:28.829Z,21.4
2019-01-24T09:39:18.077Z,21.4
2019-01-24T09:40:08.402Z,21.5
2019-01-24T09:40:57.888Z,21.5
2019-01-24T09:41:48.549Z,21.5
2019-01-24T09:42:38.296Z,21.4
2019-01-24T09:43:28.136Z,21.5
2019-01-24T09:44:18.671Z,21.4
2019-01-24T09:45:08.196Z,21.4
2019-01-24T09:45:58.847Z,21.4
2019-01-24T09:46:49.134Z,21.4
2019-01-24T09:47:39.476Z,21.4
2019-01-24T09:48:28.491Z,21.4
2019-01-24T09:49:18.739Z,21.4
2019-01-24T09:50:09.356Z,21.3
2019-01-24T09:50:59.428Z,21.3
2019-01-24T09:51:48.988Z,21.3
2019-01-24T09:52:39.266Z,21.3
2019-01-24T09:53:29.855Z,21.3
2019-01-24T09:54:19.101Z,21.3
2019-01-24T09:55:10.346Z,21.3
2019-01-24T09:55:59.758Z,21.3
2019-01-24T09:56:49.546Z,21.3
2019-01-24T09:57:38.773Z,21.3
2019-01-24T09:58:29.937Z,21.3
2019-01-24T09:59:19.995Z,21.3
2019-01-24T10:00:10.059Z,21.3
2019-01-24T10:00:59.910Z,21.3
2019-01-24T10:01:49.610Z,21.3
2019-01-24T10:02:40.223Z,21.3
2019-01-24T10:03:30.292Z,21.3
2019-01-24T10:04:19.877Z,21.4
2019-01-24T10:05:10.397Z,21.4
2019-01-24T10:07:36.339Z,21.4
2019-01-24T10:08:27.592Z,21.5
2019-01-24T10:09:17.539Z,21.5
2019-01-24T10:10:07.179Z,21.5
2019-01-24T10:10:57.519Z,21.6
2019-01-24T10:11:46.474Z,21.5
2019-01-24T10:12:37.579Z,21.5
2019-01-24T10:13:28.422Z,21.3
2019-01-24T10:15:07.672Z,20.9
2019-01-24T10:15:57.744Z,20.6
2019-01-24T10:16:48.397Z,20.4
2019-01-24T10:17:39.507Z,20.1
2019-01-24T10:18:28.249Z,19.9
2019-01-24T10:19:18.259Z,19.8
2019-01-24T10:20:08.577Z,19.8
2019-01-24T10:20:57.518Z,19.8
2019-01-24T10:21:48.489Z,19.8
2019-01-24T10:22:38.826Z,19.8
2019-01-24T10:23:28.289Z,19.8
2019-01-24T10:24:18.376Z,19.8
2019-01-24T10:25:08.544Z,19.8
2019-01-24T10:25:58.494Z,19.8
2019-01-24T10:26:48.869Z,19.9
2019-01-24T10:27:38.011Z,19.9
2019-01-24T10:28:29.689Z,19.9
2019-01-24T10:29:17.861Z,19.9
2019-01-24T10:30:08.496Z,20
2019-01-24T10:30:58.601Z,20
2019-01-24T10:31:50.826Z,20.1
2019-01-24T10:32:38.121Z,20.1
2019-01-24T10:33:29.001Z,20.1
2019-01-24T10:34:18.795Z,20.1
2019-01-24T10:35:08.600Z,20.1
2019-01-24T10:35:58.621Z,20.1
2019-01-24T10:36:48.925Z,20.2
2019-01-24T10:37:39.020Z,20.2
2019-01-24T10:38:29.618Z,20.2
2019-01-24T10:39:19.473Z,20.2
2019-01-24T10:40:09.070Z,20.3
2019-01-24T10:40:59.538Z,20.3
2019-01-24T10:41:49.647Z,20.3
2019-01-24T10:42:40.227Z,20.3
2019-01-24T10:43:29.408Z,20.4
2019-01-24T10:44:20.012Z,20.5
2019-01-24T10:45:09.790Z,20.6
2019-01-24T10:45:59.285Z,20.6
2019-01-24T10:46:49.940Z,20.7
2019-01-24T10:47:40.240Z,20.7
2019-01-24T10:48:30.302Z,20.8
2019-01-24T10:49:20.087Z,20.8
2019-01-24T10:50:09.876Z,20.8
2019-01-24T10:51:00.508Z,20.9
2019-01-24T10:51:49.716Z,20.9
2019-01-24T10:52:40.340Z,20.9
2019-01-24T10:53:30.669Z,20.9
2019-01-24T10:54:20.715Z,20.9
2019-01-24T10:55:17.414Z,20.9
2019-01-24T10:56:00.835Z,20.9
2019-01-24T10:56:50.336Z,20.9
2019-01-24T10:57:41.236Z,20.9
2019-01-24T10:58:31.064Z,20.9
2019-01-24T10:59:21.159Z,20.9
2019-01-24T11:00:10.854Z,21
2019-01-24T11:01:00.364Z,21
2019-01-24T11:01:51.232Z,21.1
2019-01-24T11:02:41.299Z,21.1
2019-01-24T11:03:31.276Z,21.1
2019-01-24T11:06:01.262Z,21.2
2019-01-24T11:06:55.664Z,21.3
2019-01-24T11:07:42.103Z,21.3
2019-01-24T11:08:31.340Z,21.3
2019-01-24T11:09:22.013Z,21.3
2019-01-24T11:10:13.341Z,21.3
2019-01-24T11:11:01.896Z,21.3
2019-01-24T11:11:52.678Z,21.4
2019-01-24T11:12:41.888Z,21.4
2019-01-24T11:13:31.547Z,21.3
2019-01-24T11:14:22.043Z,21.3
2019-01-24T11:15:11.590Z,21.3
2019-01-24T11:16:02.421Z,21.3
2019-01-24T11:16:51.993Z,21.3
2019-01-24T11:17:42.326Z,21.3
2019-01-24T11:18:31.826Z,21.3
2019-01-24T11:19:21.595Z,21.2
2019-01-24T11:26:52.922Z,21.1
2019-01-24T11:27:42.377Z,21.1
2019-01-24T11:28:33.445Z,21.1
2019-01-24T11:29:23.062Z,21.1
2019-01-24T11:31:53.270Z,21.2
2019-01-24T11:32:43.897Z,21.2
2019-01-24T11:33:33.902Z,21.3
2019-01-24T11:34:23.729Z,21.3
2019-01-24T11:35:14.034Z,21.3
2019-01-24T11:36:03.845Z,21.3
2019-01-24T11:37:00.359Z,21.3
2019-01-24T11:37:43.690Z,21.3
2019-01-24T11:38:34.029Z,21.4